^^
Datos históricos de la estación: Murcia-Puente Tocinos
Diario Informe para Julio 22, 2019 Unidades:  Métrico    Ingés   Ambas
Diario Semanal Mensual Anual
  Máxima: Mínima: Promedio:
Temperatura: 15.7 °C 9.2 °C 12.1 °C
Punto de rocio: 13.2 °C 8.3 °C 10.7 °C
Humedad: 96% 79% 91%
Velocidad viento: 20.1km/h 0km/h 5.4km/h
Racha viento: 42.6km/h - -
Viento- - Sur
Presión: 1007.4 hPa 995.0 hPa -
Precipitación: 7.3 mm    
 
 
Tabla de datos para Julio 22, 2019
Hora Temperatura Punto de rocio Presión Viento Velocidad viento Racha viento Humedad Intensidad lluvia(por hora) Nubes
00:04 11.9 °C 10.2 °C 1007.3 hPa NO 3 km/h 4.8 km/h 89% 0.0 mm
00:09 11.9 °C 10.2 °C 1007.4 hPa NO 2.9 km/h 1.6 km/h 89.4% 0.0 mm
00:14 11.9 °C 10.3 °C 1007.4 hPa NO 0.8 km/h 8 km/h 90% 0.0 mm
00:19 11.8 °C 10.2 °C 1007.4 hPa Calm   7.6 km/h 90% 0.0 mm
00:24 11.8 °C 10.2 °C 1007.4 hPa Oeste 2.7 km/h 8 km/h 90% 0.0 mm
00:29 11.8 °C 10.2 °C 1007.4 hPa Oeste 3.9 km/h 8 km/h 90.4% 0.0 mm
00:34 11.7 °C 10.3 °C 1007.4 hPa Oeste 3.2 km/h 8 km/h 91% 0.0 mm
00:39 11.7 °C 10.3 °C 1007.4 hPa OSO 2.9 km/h 6.9 km/h 91% 0.0 mm
00:44 11.7 °C 10.3 °C 1007.4 hPa SO 2.9 km/h 8 km/h 91% 0.0 mm
00:49 11.8 °C 10.4 °C 1007.4 hPa SSO 2.9 km/h 8 km/h 91% 0.0 mm
00:54 11.8 °C 10.4 °C 1007.4 hPa SE 2.5 km/h 5.8 km/h 91% 0.0 mm
00:59 11.8 °C 10.4 °C 1007.1 hPa SE 2.2 km/h 7.4 km/h 91% 0.0 mm
01:04 11.8 °C 10.3 °C 1007.1 hPa SE 3.4 km/h 9.3 km/h 90.4% 0.0 mm
01:09 11.7 °C 10.1 °C 1007.1 hPa SE 3.9 km/h 9.7 km/h 90.3% 0.0 mm
01:14 11.6 °C 10.2 °C 1007.0 hPa Sur 4.6 km/h 8 km/h 91% 0.0 mm
01:19 11.6 °C 10.1 °C 1007.0 hPa SSO 5 km/h 8 km/h 91% 0.0 mm
01:24 11.5 °C 10.1 °C 1007.0 hPa SO 4.8 km/h 8 km/h 91% 0.0 mm
01:29 11.5 °C 10.1 °C 1007.0 hPa SSO 4.7 km/h 8 km/h 91% 0.0 mm
01:34 11.5 °C 10.2 °C 1007.0 hPa Sur 4.7 km/h 8 km/h 91.6% 0.0 mm
01:39 11.6 °C 10.3 °C 1007.0 hPa Sur 4.7 km/h 9.3 km/h 92% 0.0 mm
01:44 11.6 °C 10.2 °C 1006.8 hPa SSO 4.9 km/h 9.7 km/h 91.3% 0.0 mm
01:49 11.6 °C 10.2 °C 1006.8 hPa Sur 5 km/h 8 km/h 91% 0.0 mm
01:54 11.6 °C 10.1 °C 1006.8 hPa SSO 4.2 km/h 8.4 km/h 91% 0.0 mm
01:59 11.6 °C 10.2 °C 1006.8 hPa SSO 3.9 km/h 9.5 km/h 91% 0.0 mm
02:04 11.6 °C 10.2 °C 1006.8 hPa SSO 4.7 km/h 9.7 km/h 91% 0.0 mm
02:09 11.6 °C 10.2 °C 1006.8 hPa SSO 5 km/h 9.7 km/h 91% 0.0 mm
02:14 11.6 °C 10.2 °C 1006.5 hPa SSO 3.1 km/h 2.3 km/h 91% 0.0 mm
02:19 11.6 °C 10.2 °C 1006.5 hPa Sur 2.2 km/h 7.4 km/h 91% 0.0 mm
02:24 11.6 °C 10.1 °C 1006.5 hPa Sur 2.9 km/h 9.5 km/h 91% 0.0 mm
02:29 11.5 °C 10.1 °C 1006.5 hPa SSO 3.2 km/h 9.7 km/h 91% 0.0 mm
02:34 11.5 °C 10.1 °C 1006.5 hPa SSO 4.3 km/h 8 km/h 91% 0.0 mm
02:39 11.5 °C 10 °C 1006.5 hPa Sur 4.7 km/h 8.4 km/h 91% 0.0 mm
02:44 11.5 °C 10 °C 1006.4 hPa Sur 4.9 km/h 8.4 km/h 91% 0.0 mm
02:49 11.4 °C 10 °C 1006.4 hPa Sur 5 km/h 8 km/h 90.7% 0.0 mm
02:54 11.4 °C 9.9 °C 1006.4 hPa Sur 4.8 km/h 8 km/h 90% 0.0 mm
02:59 11.4 °C 9.9 °C 1006.2 hPa SO 4.7 km/h 6.4 km/h 90% 0.0 mm
03:04 11.4 °C 9.8 °C 1006.2 hPa Oeste 3.3 km/h 7.4 km/h 90% 0.0 mm
03:09 11.4 °C 9.8 °C 1006.3 hPa OSO 2.9 km/h 10 km/h 90% 0.0 mm
03:14 11.3 °C 9.7 °C 1006.3 hPa OSO 4.3 km/h 9.7 km/h 90% 0.0 mm
03:19 11.3 °C 9.7 °C 1006.3 hPa OSO 5 km/h 9.7 km/h 90% 0.2 mm
03:24 11.2 °C 9.7 °C 1006.3 hPa OSO 4.8 km/h 8.4 km/h 90.6% 0.2 mm
03:29 11.2 °C 9.8 °C 1006.2 hPa Oeste 4.7 km/h 8 km/h 91% 0.2 mm
03:34 11.2 °C 9.8 °C 1006.2 hPa Oeste 3.6 km/h 6.4 km/h 91% 0.2 mm
03:39 11.1 °C 9.6 °C 1006.2 hPa Sur 3.2 km/h 1.9 km/h 90.6% 0.2 mm
03:44 11.1 °C 9.6 °C 1006.2 hPa Sur 1 km/h 8.7 km/h 90.8% 0.2 mm
03:49 11 °C 9.6 °C 1006.2 hPa Calm   9.7 km/h 91% 0.2 mm
03:54 11 °C 9.6 °C 1006.2 hPa SSO 4.5 km/h 11.1 km/h 91% 0.2 mm
03:59 10.9 °C 9.5 °C 1006.1 hPa SSO 6.5 km/h 11.3 km/h 91% 0.2 mm
04:04 10.8 °C 9.4 °C 1006.1 hPa Sur 6 km/h 9.7 km/h 91% 0.2 mm
04:09 10.8 °C 9.5 °C 1006.1 hPa SSE 5.8 km/h 11.1 km/h 91.8% 0.2 mm
04:14 10.7 °C 9.5 °C 1005.9 hPa SSE 5 km/h 14 km/h 92% 0.2 mm
04:19 10.7 °C 9.4 °C 1005.9 hPa Sur 4.7 km/h 14.8 km/h 92% 0.2 mm
04:24 10.6 °C 9.3 °C 1005.9 hPa Sur 7.3 km/h 14.5 km/h 92% 0.0 mm
04:29 10.6 °C 9.4 °C 1005.9 hPa Sur 8.4 km/h 11.3 km/h 92.5% 0.0 mm
04:34 10.6 °C 9.5 °C 1005.9 hPa Sur 7 km/h 11.3 km/h 93% 0.0 mm
04:39 10.6 °C 9.5 °C 1005.9 hPa SSO 6.5 km/h 8.4 km/h 93% 0.0 mm
04:44 10.7 °C 9.6 °C 1005.8 hPa SSO 5.4 km/h 10 km/h 93% 0.0 mm
04:49 10.7 °C 9.6 °C 1005.8 hPa Sur 5 km/h 11.1 km/h 93% 0.0 mm
04:54 10.7 °C 9.6 °C 1005.8 hPa Sur 6.3 km/h 11.3 km/h 93% 0.0 mm
04:59 10.7 °C 9.6 °C 1005.8 hPa SSE 6.9 km/h 10 km/h 93% 0.0 mm
05:04 10.7 °C 9.5 °C 1005.8 hPa Sur 5.5 km/h 9.7 km/h 92.5% 0.0 mm
05:09 10.7 °C 9.5 °C 1005.8 hPa OSO 5 km/h 8 km/h 92.1% 0.0 mm
05:14 10.7 °C 9.4 °C 1005.7 hPa SO 3.8 km/h 8 km/h 92% 0.0 mm
05:19 10.7 °C 9.4 °C 1005.7 hPa SSE 3.2 km/h 7.4 km/h 92% 0.0 mm
05:24 10.7 °C 9.4 °C 1005.8 hPa SSO 3 km/h 8 km/h 92% 0.0 mm
05:29 10.7 °C 9.4 °C 1005.8 hPa OSO 2.9 km/h 8 km/h 92% 0.0 mm
05:34 10.7 °C 9.4 °C 1005.8 hPa OSO 3.1 km/h 6.4 km/h 92% 0.0 mm
05:39 10.7 °C 9.4 °C 1005.8 hPa OSO 3.2 km/h 3.2 km/h 92% 0.0 mm
05:44 10.6 °C 9.3 °C 1005.7 hPa OSO 1 km/h 5.6 km/h 92% 0.0 mm
05:49 10.6 °C 9.3 °C 1005.7 hPa Calm   5.8 km/h 92% 0.0 mm
05:54 10.6 °C 9.3 °C 1005.8 hPa OSO 2.8 km/h 7.4 km/h 92% 0.0 mm
05:59 10.6 °C 9.3 °C 1005.8 hPa OSO 3.9 km/h 8 km/h 92% 0.0 mm
06:04 10.5 °C 9.3 °C 1005.8 hPa OSO 1 km/h   92% 0.0 mm
06:09 10.4 °C 9.2 °C 1005.8 hPa Calm     92% 0.0 mm
06:14 10.4 °C 9.1 °C 1005.4 hPa Calm     92% 0.0 mm
06:19 10.3 °C 9.1 °C 1005.4 hPa Calm     92% 0.0 mm
06:24 10.2 °C 9 °C 1005.4 hPa Calm     92% 0.0 mm
06:29 10.2 °C 8.9 °C 1005.3 hPa Calm     92% 0.0 mm
06:34 10.2 °C 8.9 °C 1005.3 hPa Calm     92% 0.0 mm
06:39 10.1 °C 8.8 °C 1005.3 hPa Calm   10 km/h 92% 0.0 mm
06:44 9.8 °C 8.5 °C 1005.2 hPa SSE 2.3 km/h 11.9 km/h 91.6% 0.0 mm
06:49 9.7 °C 8.4 °C 1005.2 hPa SSE 3.2 km/h 11.3 km/h 92% 0.0 mm
06:54 9.6 °C 8.4 °C 1005.2 hPa SSE 5.5 km/h 9.7 km/h 92.6% 0.0 mm
06:59 9.5 °C 8.4 °C 1005.2 hPa SSO 6.5 km/h 9.7 km/h 93% 0.0 mm
07:04 9.4 °C 8.4 °C 1005.2 hPa SO 5.4 km/h 8 km/h 93% 0.0 mm
07:09 9.5 °C 8.6 °C 1005.3 hPa SSO 5 km/h 8 km/h 93.8% 0.0 mm
07:14 9.6 °C 8.7 °C 1005.3 hPa SE 4.2 km/h 8 km/h 94% 0.0 mm
07:19 9.6 °C 8.7 °C 1005.3 hPa SE 3.9 km/h 8 km/h 94% 0.0 mm
07:24 9.6 °C 8.7 °C 1005.4 hPa Sur 3.2 km/h 7.6 km/h 94% 0.0 mm
07:29 9.6 °C 8.7 °C 1005.4 hPa SE 2.9 km/h 8 km/h 94% 0.0 mm
07:34 9.6 °C 8.6 °C 1005.4 hPa SSE 4.3 km/h 10 km/h 93.5% 0.0 mm
07:39 9.4 °C 8.4 °C 1005.4 hPa SSE 5 km/h 11.1 km/h 93.1% 0.0 mm
07:44 9.3 °C 8.4 °C 1005.3 hPa SSE 7.3 km/h 13.7 km/h 93.7% 0.0 mm
07:49 9.3 °C 8.4 °C 1005.3 hPa Sur 8.4 km/h 14.5 km/h 94% 0.0 mm
07:54 9.2 °C 8.3 °C 1005.4 hPa SSO 7.4 km/h 11.3 km/h 94% 0.0 mm
07:59 9.3 °C 8.4 °C 1005.4 hPa Sur 6.9 km/h 9.7 km/h 94% 0.0 mm
08:04 9.3 °C 8.4 °C 1005.4 hPa SSO 6.1 km/h 11.1 km/h 94% 0.0 mm
08:09 9.4 °C 8.5 °C 1005.6 hPa Sur 5.8 km/h 11.3 km/h 94% 0.0 mm
08:14 9.4 °C 8.5 °C 1005.6 hPa SSE 6.2 km/h 9.7 km/h 94% 0.0 mm
08:19 9.4 °C 8.5 °C 1005.6 hPa SE 6.5 km/h 11.1 km/h 94% 0.0 mm
08:24 9.4 °C 8.5 °C 1005.6 hPa SE 6.5 km/h 11.3 km/h 94% 0.0 mm
08:29 9.5 °C 8.6 °C 1005.2 hPa Sur 6.5 km/h 11.1 km/h 94% 0.0 mm
08:34 9.5 °C 8.6 °C 1005.2 hPa Sur 6.5 km/h 11.3 km/h 94% 0.0 mm
08:39 9.5 °C 8.6 °C 1005.4 hPa SSO 6.5 km/h 9.7 km/h 94% 0.0 mm
08:44 9.6 °C 8.6 °C 1005.4 hPa SSO 5.2 km/h 8 km/h 94% 0.0 mm
08:49 9.6 °C 8.7 °C 1005.4 hPa SSO 4.7 km/h 8 km/h 94% 0.0 mm
08:54 9.7 °C 8.8 °C 1005.4 hPa Sur 3.6 km/h 8 km/h 94% 0.0 mm
08:59 9.8 °C 8.8 °C 1005.4 hPa Sur 3.2 km/h 10 km/h 93.6% 0.0 mm
09:04 9.8 °C 8.7 °C 1005.4 hPa SSO 4.5 km/h 9.7 km/h 93% 0.0 mm
09:09 9.9 °C 8.8 °C 1005.5 hPa SO 5 km/h 9.5 km/h 93% 0.0 mm
09:14 10 °C 8.9 °C 1005.5 hPa SO 4.2 km/h 9.7 km/h 93% 0.0 mm
09:19 10.1 °C 9 °C 1005.5 hPa SO 3.9 km/h 9.7 km/h 93% 0.0 mm
09:24 10.2 °C 8.9 °C 1005.6 hPa SSO 5.2 km/h 9.7 km/h 92.1% 0.0 mm
09:29 10.2 °C 8.9 °C 1005.6 hPa SSO 5.8 km/h 8.4 km/h 92% 0.0 mm
09:34 10.3 °C 9 °C 1005.6 hPa SO 5.8 km/h 8 km/h 91.8% 0.0 mm
09:39 10.3 °C 8.9 °C 1005.6 hPa Sur 5.8 km/h 9.3 km/h 91% 0.0 mm
09:44 10.4 °C 9 °C 1005.5 hPa SE 5 km/h 10 km/h 91% 0.0 mm
09:49 10.4 °C 8.8 °C 1005.5 hPa SSE 4.7 km/h 10 km/h 90.1% 0.0 mm
09:54 10.3 °C 8.8 °C 1005.5 hPa SSE 5.9 km/h 13 km/h 90.2% 0.0 mm
09:59 10.3 °C 8.9 °C 1005.3 hPa SSE 6.5 km/h 13 km/h 91% 0.0 mm
10:04 10.3 °C 8.8 °C 1005.3 hPa SSE 8.1 km/h 13.7 km/h 91% 0.0 mm
10:09 10.2 °C 8.8 °C 1005.6 hPa SSO 8.7 km/h 14.5 km/h 91% 0.0 mm
10:14 10.2 °C 8.9 °C 1005.6 hPa SO 7.5 km/h 12.9 km/h 92% 0.0 mm
10:19 10.2 °C 8.9 °C 1005.6 hPa SO 6.9 km/h 8 km/h 92% 0.0 mm
10:24 10.2 °C 9 °C 1005.6 hPa SO 2 km/h 8 km/h 92% 0.0 mm
10:29 10.3 °C 9.1 °C 1005.2 hPa Calm   10 km/h 92% 0.0 mm
10:34 10.4 °C 9.1 °C 1005.2 hPa ONO 3.3 km/h 9.7 km/h 92% 0.0 mm
10:39 10.4 °C 9.2 °C 1005.2 hPa ONO 4.7 km/h 8 km/h 92% 0.0 mm
10:44 10.5 °C 9.3 °C 1005.1 hPa Oeste 3.4 km/h 9.3 km/h 92% 0.0 mm
10:49 10.5 °C 9.3 °C 1005.1 hPa OSO 2.9 km/h 9.7 km/h 92% 0.0 mm
10:54 10.6 °C 9.3 °C 1005.1 hPa OSO 2.9 km/h 4.8 km/h 92% 0.0 mm
10:59 10.6 °C 9.3 °C 1005.1 hPa OSO 2.9 km/h   92% 0.0 mm
11:04 10.7 °C 9.4 °C 1005.1 hPa OSO 0.8 km/h   92% 0.3 mm
11:09 10.8 °C 9.5 °C 1005.1 hPa Calm   7.4 km/h 91.8% 0.3 mm
11:14 10.8 °C 9.4 °C 1005.1 hPa SSE 2 km/h 8 km/h 91% 0.3 mm
11:19 10.8 °C 9.5 °C 1005.1 hPa SSE 2.9 km/h 8 km/h 91.4% 0.3 mm
11:24 10.9 °C 9.6 °C 1005.1 hPa SSE 3.1 km/h 6.4 km/h 92% 0.3 mm
11:29 11 °C 9.7 °C 1005.1 hPa SSE 3.2 km/h 5.8 km/h 92% 0.3 mm
11:34 11 °C 9.7 °C 1005.1 hPa Sur 2.6 km/h 7.6 km/h 92% 0.3 mm
11:39 11 °C 9.7 °C 1005.1 hPa SSO 2.2 km/h 9.5 km/h 92% 0.8 mm
11:44 11 °C 9.7 °C 1004.9 hPa SSO 4 km/h 9.7 km/h 92% 0.8 mm
11:49 11 °C 9.7 °C 1004.9 hPa Sur 4.7 km/h 8.4 km/h 92% 0.8 mm
11:54 11 °C 9.7 °C 1004.9 hPa SSE 4.9 km/h 9.5 km/h 92% 0.8 mm
11:59 11 °C 9.7 °C 1004.6 hPa SSE 5 km/h 11.1 km/h 91.6% 1.0 mm
12:04 11.1 °C 9.8 °C 1004.6 hPa SE 6.4 km/h 11.3 km/h 92% 1.0 mm
12:09 11.1 °C 9.8 °C 1004.6 hPa ESE 6.9 km/h 11.9 km/h 92% 0.7 mm
12:14 11.1 °C 9.8 °C 1004.0 hPa ESE 6.9 km/h 14.8 km/h 92% 0.7 mm
12:19 11.1 °C 9.8 °C 1004.0 hPa SSE 6.9 km/h 14.5 km/h 92% 0.7 mm
12:24 11.2 °C 10 °C 1004.0 hPa NE 6.6 km/h 12.9 km/h 92.6% 0.7 mm
12:29 11.2 °C 10.1 °C 1002.9 hPa Este 6.5 km/h 8 km/h 92.9% 0.7 mm
12:34 11.3 °C 10.1 °C 1002.9 hPa NE 4 km/h 11.1 km/h 92.5% 0.7 mm
12:39 11.3 °C 10.1 °C 1002.9 hPa North 2.9 km/h 11.3 km/h 92.2% 0.2 mm
12:44 11.4 °C 10.3 °C 1002.2 hPa North 5.3 km/h 14.8 km/h 93% 0.2 mm
12:49 11.4 °C 10.3 °C 1002.2 hPa NO 6.5 km/h 14.5 km/h 92.9% 0.2 mm
12:54 11.6 °C 10.5 °C 1002.2 hPa NNO 6.8 km/h 13 km/h 93% 0.2 mm
12:59 11.7 °C 10.6 °C 1002.2 hPa NO 6.9 km/h 12.9 km/h 93% 0.2 mm
13:04 11.7 °C 10.6 °C 1002.2 hPa NNO 6.6 km/h 13 km/h 93% 0.0 mm
13:09 11.7 °C 10.6 °C 1002.2 hPa North 6.5 km/h 12.9 km/h 93% 0.0 mm
13:14 11.7 °C 10.6 °C 1002.0 hPa NNE 6.5 km/h 11.1 km/h 93% 0.0 mm
13:19 11.7 °C 10.5 °C 1002.0 hPa NE 6.5 km/h 11.3 km/h 92.6% 0.0 mm
13:24 11.7 °C 10.6 °C 1002.0 hPa NNE 6.5 km/h 9.7 km/h 92.9% 0.0 mm
13:29 11.8 °C 10.7 °C 1001.9 hPa NNE 6.5 km/h 9.3 km/h 93% 0.0 mm
13:34 11.8 °C 10.7 °C 1001.9 hPa NE 5.2 km/h 9.7 km/h 93% 0.0 mm
13:39 11.9 °C 10.8 °C 1001.9 hPa North 4.7 km/h 10 km/h 93% 0.0 mm
13:44 11.9 °C 10.8 °C 1001.4 hPa NE 4.7 km/h 9.7 km/h 93% 0.0 mm
13:49 12 °C 10.9 °C 1001.4 hPa NE 4.7 km/h 8 km/h 93% 0.0 mm
13:54 12.1 °C 11 °C 1001.4 hPa NE 4.1 km/h 8 km/h 93% 0.0 mm
13:59 12.1 °C 11 °C 1001.4 hPa NNE 3.9 km/h 7.4 km/h 93% 0.0 mm
14:04 12.2 °C 11 °C 1001.4 hPa NNO 2.7 km/h 8 km/h 93% 0.0 mm
14:09 12.2 °C 11.1 °C 1001.4 hPa Oeste 2.2 km/h 3.2 km/h 93% 0.0 mm
14:14 12.2 °C 11.1 °C 1001.1 hPa NNO 0.7 km/h   93% 0.0 mm
14:19 12.3 °C 11.2 °C 1001.1 hPa Calm   5.8 km/h 93% 0.0 mm
14:24 12.3 °C 11.2 °C 1001.1 hPa Calm   8.4 km/h 93% 0.0 mm
14:29 12.4 °C 11.3 °C 1000.8 hPa Calm   8 km/h 93% 0.0 mm
14:34 12.4 °C 11.1 °C 1000.8 hPa NE 2.7 km/h 9.5 km/h 92.1% 0.0 mm
14:39 12.4 °C 11.1 °C 1000.8 hPa NE 3.9 km/h 9.7 km/h 92% 0.0 mm
14:44 12.5 °C 11.3 °C 1000.2 hPa NNE 3.4 km/h 9.5 km/h 92% 0.0 mm
14:49 12.6 °C 11.3 °C 1000.2 hPa NE 3.2 km/h 9.7 km/h 92% 0.0 mm
14:54 12.7 °C 11.4 °C 1000.2 hPa NNE 5.1 km/h 9.7 km/h 92% 0.0 mm
14:59 12.7 °C 11.4 °C 1000.1 hPa NNE 5.8 km/h 9.7 km/h 92% 0.0 mm
15:04 12.7 °C 11.5 °C 1000.1 hPa NE 5.8 km/h 9.7 km/h 92% 0.0 mm
15:09 12.8 °C 11.6 °C 1000.1 hPa NNE 5.8 km/h 10 km/h 92.6% 0.0 mm
15:14 12.8 °C 11.7 °C 999.9 hPa NE 6.2 km/h 9.7 km/h 93% 0.0 mm
15:19 12.8 °C 11.7 °C 999.9 hPa NE 6.5 km/h 11.1 km/h 93% 0.0 mm
15:24 12.9 °C 11.8 °C 999.9 hPa NE 6.8 km/h 11.3 km/h 93% 0.0 mm
15:29 13 °C 11.9 °C 999.4 hPa Este 6.9 km/h 10 km/h 93% 0.0 mm
15:34 13.1 °C 12 °C 999.4 hPa ENE 6.1 km/h 9.7 km/h 93% 0.0 mm
15:39 13.2 °C 12.1 °C 999.4 hPa Este 5.8 km/h 11.9 km/h 93% 0.0 mm
15:44 13.3 °C 12.2 °C 999.0 hPa NE 5.8 km/h 11.3 km/h 93% 0.0 mm
15:49 13.3 °C 12.2 °C 999.0 hPa Oeste 5.8 km/h 9.5 km/h 93% 0.0 mm
15:54 13.4 °C 12.3 °C 999.0 hPa NNO 5 km/h 9.7 km/h 93% 0.0 mm
15:59 13.4 °C 12.3 °C 998.9 hPa NO 4.7 km/h 15.6 km/h 93% 0.0 mm
16:04 13.7 °C 12.6 °C 998.9 hPa Sur 6.3 km/h 22.5 km/h 93% 0.0 mm
16:09 14 °C 12.7 °C 998.9 hPa Sur 6.9 km/h 27.8 km/h 91.8% 0.0 mm
16:14 14.7 °C 12.8 °C 998.7 hPa Sur 9.3 km/h 28.2 km/h 88.1% 0.0 mm
16:19 15.3 °C 12.7 °C 998.7 hPa SSE 10.3 km/h 27.4 km/h 84.2% 0.0 mm
16:24 15.5 °C 12.6 °C 998.7 hPa SSE 12.7 km/h 25.9 km/h 82.4% 0.3 mm
16:29 15.7 °C 12.4 °C 998.4 hPa SSE 13.7 km/h 33.5 km/h 80.7% 0.3 mm
16:34 15.7 °C 12.3 °C 998.4 hPa Sur 16.9 km/h 42 km/h 80% 0.3 mm
16:39 15.7 °C 12.1 °C 998.4 hPa Sur 18.4 km/h 42.6 km/h 79% 0.3 mm
16:44 15.7 °C 12.2 °C 998.3 hPa SSE 19.6 km/h 37.8 km/h 79.8% 0.3 mm
16:49 15.6 °C 12.3 °C 998.3 hPa Sur 20.1 km/h 37 km/h 80.6% 0.3 mm
16:54 15.4 °C 12.3 °C 998.3 hPa SSE 17.5 km/h 28.2 km/h 81.6% 0.3 mm
16:59 15.3 °C 12.3 °C 998.0 hPa SSE 16.4 km/h 27.8 km/h 81.9% 0.3 mm
17:04 15.3 °C 12.2 °C 998.0 hPa Sur 16.4 km/h 29.8 km/h 81.6% 0.5 mm
17:09 15.3 °C 12.1 °C 998.1 hPa Sur 16.4 km/h 30.6 km/h 81% 0.5 mm
17:14 15.2 °C 12.2 °C 998.1 hPa Sur 15.8 km/h 30.6 km/h 81.9% 0.5 mm
17:19 15.2 °C 12.2 °C 998.1 hPa Sur 15.6 km/h 30.6 km/h 82.4% 0.5 mm
17:24 15 °C 12.2 °C 998.1 hPa Sur 16.7 km/h 28.2 km/h 83.4% 0.8 mm
17:29 15 °C 12.3 °C 998.0 hPa Sur 17.2 km/h 27.4 km/h 84% 0.8 mm
17:34 14.9 °C 12.3 °C 998.0 hPa Sur 17.2 km/h 25.7 km/h 84.4% 0.8 mm
17:39 14.9 °C 12.4 °C 998.0 hPa Sur 17.2 km/h 27.8 km/h 85% 1.0 mm
17:44 15 °C 12.4 °C 998.0 hPa Sur 15 km/h 27.4 km/h 84.9% 1.0 mm
17:49 14.9 °C 12.4 °C 998.0 hPa Sur 14 km/h 22.5 km/h 85% 1.5 mm
17:54 14.9 °C 12.4 °C 998.0 hPa SSO 12.6 km/h 22.5 km/h 85% 1.5 mm
17:59 14.9 °C 12.4 °C 997.8 hPa Sur 11.9 km/h 26.2 km/h 85% 1.5 mm
18:04 15.1 °C 12.6 °C 997.8 hPa Sur 13.4 km/h 25.7 km/h 85% 1.6 mm
18:09 15.1 °C 12.6 °C 998.0 hPa Sur 14 km/h 27.8 km/h 85% 1.8 mm
18:14 15.1 °C 12.7 °C 998.0 hPa Sur 14 km/h 27.8 km/h 85.7% 1.8 mm
18:19 14.9 °C 12.7 °C 998.0 hPa Sur 14 km/h 27.4 km/h 86.5% 2.1 mm
18:24 14.9 °C 12.8 °C 998.0 hPa Sur 12.5 km/h 20.9 km/h 87% 2.1 mm
18:29 14.8 °C 12.8 °C 997.8 hPa Sur 11.9 km/h 18.5 km/h 87.9% 1.8 mm
18:34 14.8 °C 12.9 °C 997.8 hPa Sur 10.6 km/h 19.3 km/h 88% 2.0 mm
18:39 14.8 °C 12.9 °C 997.8 hPa SSE 10 km/h 17.7 km/h 88% 2.1 mm
18:44 14.8 °C 12.9 °C 997.7 hPa SE 9.6 km/h 16.1 km/h 88% 2.1 mm
18:49 14.8 °C 12.9 °C 997.7 hPa SSE 9.5 km/h 16.7 km/h 88.4% 2.1 mm
18:54 14.8 °C 13 °C 997.7 hPa SSE 8.9 km/h 18.5 km/h 89% 1.6 mm
18:59 14.8 °C 13 °C 997.4 hPa SSE 8.7 km/h 19.3 km/h 89% 1.6 mm
19:04 14.8 °C 13 °C 997.4 hPa SSE 9.3 km/h 14.8 km/h 89% 1.6 mm
19:09 14.8 °C 13 °C 997.4 hPa SE 9.5 km/h 16.7 km/h 89% 1.6 mm
19:14 14.8 °C 13 °C 996.8 hPa SSE 8.9 km/h 16.1 km/h 89% 1.6 mm
19:19 14.8 °C 13 °C 996.8 hPa Sur 8.7 km/h 14.5 km/h 89% 1.6 mm
19:24 14.8 °C 13 °C 996.9 hPa Sur 8.5 km/h 16.7 km/h 89% 1.5 mm
19:29 14.8 °C 13.1 °C 996.9 hPa SSO 8.4 km/h 16.7 km/h 89% 1.5 mm
19:34 14.9 °C 13.1 °C 996.9 hPa OSO 9.1 km/h 16.1 km/h 89% 1.5 mm
19:39 14.8 °C 13 °C 997.3 hPa OSO 9.5 km/h 13 km/h 89% 1.5 mm
19:44 14.8 °C 13.1 °C 997.3 hPa SO 6.9 km/h 12.9 km/h 89.6% 1.8 mm
19:49 14.7 °C 13.1 °C 997.3 hPa SO 5.8 km/h 9.7 km/h 90% 2.0 mm
19:54 14.7 °C 13.1 °C 997.3 hPa Sur 3.9 km/h 8.7 km/h 90% 2.3 mm
19:59 14.7 °C 13.1 °C 996.9 hPa SO 3.2 km/h 10 km/h 90% 2.5 mm
20:04 14.6 °C 13.1 °C 996.9 hPa SO 3.7 km/h 9.7 km/h 90.5% 2.5 mm
20:09 14.6 °C 13.2 °C 996.9 hPa SO 3.9 km/h   91% 2.5 mm
20:14 14.5 °C 13.1 °C 996.3 hPa SO 1.1 km/h   91% 2.0 mm
20:19 14.4 °C 12.9 °C 996.3 hPa Calm   6.9 km/h 91% 2.0 mm
20:24 14.4 °C 12.9 °C 996.3 hPa North 1.6 km/h 8 km/h 91% 2.0 mm
20:29 14.2 °C 12.8 °C 996.0 hPa NNO 2.2 km/h 11.9 km/h 91.3% 1.8 mm
20:34 14 °C 12.8 °C 996.0 hPa North 4.7 km/h 11.3 km/h 92% 1.8 mm
20:39 13.9 °C 12.6 °C 996.2 hPa NNE 5.8 km/h 9.7 km/h 92.2% 1.3 mm
20:44 13.8 °C 12.7 °C 996.2 hPa NNE 4.4 km/h 8 km/h 93% 1.0 mm
20:49 13.8 °C 12.7 °C 996.2 hPa North 3.9 km/h 7.4 km/h 93.2% 0.7 mm
20:54 13.8 °C 12.8 °C 996.6 hPa NNO 3.2 km/h 8 km/h 94% 0.5 mm
20:59 13.8 °C 12.7 °C 996.6 hPa North 2.9 km/h 10 km/h 93% 0.0 mm
21:04 13.7 °C 12.7 °C 996.6 hPa NO 4.4 km/h 11.1 km/h 93.5% 0.0 mm
21:09 13.7 °C 12.7 °C 996.8 hPa ONO 5 km/h 11.3 km/h 94% 0.0 mm
21:14 13.5 °C 12.6 °C 996.8 hPa NO 5.9 km/h 13 km/h 94% 0.0 mm
21:19 13.4 °C 12.5 °C 996.8 hPa NNO 6.5 km/h 12.9 km/h 94% 0.0 mm
21:24 13.4 °C 12.4 °C 996.8 hPa NNO 6.5 km/h 11.3 km/h 94% 0.0 mm
21:29 13.4 °C 12.6 °C 996.6 hPa North 6.5 km/h 8 km/h 94.6% 0.0 mm
21:34 13.4 °C 12.6 °C 996.6 hPa NNO 4.7 km/h 8 km/h 95% 0.0 mm
21:39 13.4 °C 12.6 °C 996.6 hPa NNO 3.9 km/h 8 km/h 95% 0.0 mm
21:44 13.4 °C 12.6 °C 996.1 hPa NO 4.4 km/h 8.4 km/h 95% 0.0 mm
21:49 13.4 °C 12.6 °C 996.1 hPa NO 4.7 km/h 8 km/h 95% 0.0 mm
21:54 13.4 °C 12.6 °C 996.1 hPa NNO 3.7 km/h 7.4 km/h 95% 0.0 mm
21:59 13.4 °C 12.6 °C 995.9 hPa NNO 3.2 km/h 8 km/h 95% 0.0 mm
22:04 13.3 °C 12.5 °C 995.9 hPa NNO 1 km/h   95% 0.0 mm
22:09 13.3 °C 12.5 °C 996.0 hPa Calm   2.3 km/h 95% 0.0 mm
22:14 13.2 °C 12.4 °C 996.0 hPa Calm   1.6 km/h 95% 0.0 mm
22:19 13.2 °C 12.4 °C 996.0 hPa Calm     95% 0.0 mm
22:24 13.1 °C 12.3 °C 996.0 hPa Calm   5.8 km/h 95% 0.0 mm
22:29 13 °C 12.3 °C 995.6 hPa Calm   6.4 km/h 95% 0.0 mm
22:34 12.9 °C 12.1 °C 995.6 hPa Calm     95% 0.0 mm
22:39 12.9 °C 12.1 °C 995.6 hPa Calm   5.8 km/h 95% 0.0 mm
22:44 12.8 °C 12 °C 995.3 hPa SE 1.5 km/h 7.4 km/h 95% 0.0 mm
22:49 12.7 °C 12 °C 995.3 hPa SE 2.2 km/h 8 km/h 95% 0.2 mm
22:54 12.7 °C 11.9 °C 995.3 hPa SE 2.2 km/h   95% 0.2 mm
22:59 12.6 °C 11.8 °C 995.2 hPa SE 2.2 km/h   95.1% 0.2 mm
23:04 12.6 °C 11.9 °C 995.2 hPa SE 0.7 km/h   95.3% 0.2 mm
23:09 12.6 °C 12 °C 995.3 hPa Calm     95.9% 0.2 mm
23:14 12.6 °C 12 °C 995.3 hPa Calm     96% 0.2 mm
23:19 12.6 °C 12 °C 995.3 hPa Calm     96% 0.2 mm
23:24 12.6 °C 12 °C 995.3 hPa Calm     96% 0.2 mm
23:29 12.7 °C 12.1 °C 995.3 hPa Calm   7.4 km/h 96% 0.2 mm
23:34 12.7 °C 12 °C 995.3 hPa SE 2 km/h 8 km/h 96% 0.2 mm
23:39 12.5 °C 11.8 °C 995.3 hPa SE 2.9 km/h 8 km/h 95.4% 0.2 mm
23:44 12.4 °C 11.8 °C 995.3 hPa SE 3.1 km/h 11.1 km/h 95.9% 0.2 mm
23:49 12.3 °C 11.7 °C 995.3 hPa SE 3.2 km/h 11.3 km/h 96% 0.2 mm
23:54 12.3 °C 11.7 °C 995.3 hPa SE 5 km/h 11.3 km/h 96% 0.0 mm
23:59 12.3 °C 11.7 °C 995.0 hPa SE 5.8 km/h 4.8 km/h 96% 0.0 mm
Murcia-Puente Tocinos, Espa?a
Compliments of Weather Underground - 3 mb

La estación de MeteoMurcia.com, publica sus datos en los siguientes proyectos:

Weather Underground PWS IMURCIAP2 Meteoclimatic www.awekas.at

W3Counter
Web Analytics